Time;durP1;ratioP1;P1;durP2;ratioP2;P2;SDS_P1;SDS_P2;PMS_P1;PMS_P2;Temp;Humidity;BMP_temperature;BMP_pressure;BME280_temperature;BME280_humidity;BME280_pressure;Samples;Min_cycle;Max_cycle;Signal;HPM_P1;HPM_P2
2023/03/02 00:01:42;;;;;;;7.10;3.72;;;;;;;-3.33;100.00;102294.63;4936366;29;20039;-89
2023/03/02 00:04:13;;;;;;;8.75;4.60;;;;;;;-3.26;100.00;102304.47;4937865;29;20024;-89
2023/03/02 00:06:39;;;;;;;8.70;4.10;;;;;;;-3.30;100.00;102304.88;4937550;29;20032;-90
2023/03/02 00:09:05;;;;;;;10.15;4.40;;;;;;;-3.26;100.00;102309.72;4920865;29;20376;-89
2023/03/02 00:11:32;;;;;;;10.80;4.47;;;;;;;-3.15;100.00;102316.69;4939616;29;20027;-90
2023/03/02 00:13:57;;;;;;;8.55;4.20;;;;;;;-3.03;100.00;102309.56;4942408;29;20039;-89
2023/03/02 00:16:23;;;;;;;8.70;3.88;;;;;;;-2.91;100.00;102315.56;4942530;29;20023;-90
2023/03/02 00:18:48;;;;;;;11.03;4.80;;;;;;;-2.91;100.00;102312.94;4940299;29;20042;-91
2023/03/02 00:21:13;;;;;;;8.97;4.53;;;;;;;-2.90;100.00;102310.16;4942726;29;20042;-90
2023/03/02 00:23:38;;;;;;;10.37;4.30;;;;;;;-2.93;100.00;102307.00;4937102;29;20099;-88
2023/03/02 00:26:05;;;;;;;7.20;4.00;;;;;;;-3.02;100.00;102298.13;4938524;29;20072;-89
2023/03/02 00:28:30;;;;;;;10.20;4.88;;;;;;;-3.05;100.00;102293.97;4939548;29;20032;-89
2023/03/02 00:30:56;;;;;;;7.13;4.20;;;;;;;-3.08;100.00;102301.25;4940672;29;20116;-89
2023/03/02 00:33:23;;;;;;;10.30;4.33;;;;;;;-3.02;100.00;102307.78;4952829;29;20031;-89
2023/03/02 00:35:48;;;;;;;11.63;4.05;;;;;;;-3.09;100.00;102299.59;4935714;29;20024;-90
2023/03/02 00:38:14;;;;;;;7.63;3.72;;;;;;;-3.09;100.00;102302.22;4940020;28;20191;-89
2023/03/02 00:40:50;;;;;;;6.93;3.83;;;;;;;-3.05;100.00;102311.50;4952586;28;20035;-89
2023/03/02 00:43:16;;;;;;;8.30;4.03;;;;;;;-3.07;100.00;102310.78;4952587;29;20024;-89
2023/03/02 00:45:41;;;;;;;9.93;4.05;;;;;;;-3.06;100.00;102320.31;4940965;29;20035;-90
2023/03/02 00:48:07;;;;;;;8.60;4.13;;;;;;;-3.10;100.00;102311.88;4935298;28;20043;-89
2023/03/02 00:50:33;;;;;;;9.57;4.63;;;;;;;-3.13;100.00;102309.53;4934819;29;20035;-89
2023/03/02 00:52:59;;;;;;;8.65;3.88;;;;;;;-3.12;100.00;102313.00;4920912;29;20031;-89
2023/03/02 00:55:24;;;;;;;9.65;4.38;;;;;;;-3.20;100.00;102296.09;4917710;29;20106;-89
2023/03/02 00:57:55;;;;;;;11.90;5.13;;;;;;;-3.24;100.00;102293.88;4922220;29;20039;-89
2023/03/02 01:00:21;;;;;;;8.63;4.57;;;;;;;-3.18;100.00;102308.25;4936696;29;20446;-89
2023/03/02 01:02:48;;;;;;;9.38;4.38;;;;;;;-3.31;100.00;102298.81;4936576;28;20106;-89
2023/03/02 01:05:13;;;;;;;7.27;4.40;;;;;;;-3.33;100.00;102305.13;4934518;29;20450;-90
2023/03/02 01:07:39;;;;;;;5.50;3.73;;;;;;;-3.46;100.00;102292.22;4937256;29;20276;-89
2023/03/02 01:10:04;;;;;;;8.53;3.83;;;;;;;-3.46;100.00;102302.69;4933141;29;20035;-90
2023/03/02 01:12:30;;;;;;;11.00;4.63;;;;;;;-3.53;100.00;102294.53;4936141;29;20060;-89
2023/03/02 01:14:56;;;;;;;8.52;4.70;;;;;;;-3.51;100.00;102301.31;4936613;29;20028;-90
2023/03/02 01:17:24;;;;;;;10.57;4.50;;;;;;;-3.55;100.00;102288.56;4936238;29;20376;-90
2023/03/02 01:19:50;;;;;;;6.97;4.30;;;;;;;-3.54;100.00;102288.47;4935845;29;20039;-90
2023/03/02 01:22:16;;;;;;;11.02;4.40;;;;;;;-3.65;100.00;102271.00;4936295;29;20531;-90
2023/03/02 01:24:42;;;;;;;12.73;5.40;;;;;;;-3.54;100.00;102279.75;4934995;29;20035;-90
2023/03/02 01:27:07;;;;;;;9.00;4.55;;;;;;;-3.59;100.00;102267.03;4934642;29;20034;-90
2023/03/02 01:29:33;;;;;;;11.87;4.50;;;;;;;-3.54;100.00;102277.13;4938010;29;20032;-91
2023/03/02 01:31:58;;;;;;;7.67;3.80;;;;;;;-3.53;100.00;102284.03;4935908;28;20034;-91
2023/03/02 01:34:23;;;;;;;8.90;4.67;;;;;;;-3.58;100.00;102279.19;4936305;29;20036;-90
2023/03/02 01:36:49;;;;;;;8.30;4.63;;;;;;;-3.54;100.00;102274.50;4935824;29;20425;-91
2023/03/02 01:41:52;;;;;;;12.80;4.80;;;;;;;-3.55;100.00;102265.84;5755186;23;20051;-90
2023/03/02 01:44:52;;;;;;;9.38;4.55;;;;;;;-3.52;100.00;102270.81;4953453;28;20072;-90
2023/03/02 01:47:34;;;;;;;9.07;4.60;;;;;;;-3.52;100.00;102273.44;4943460;29;20058;-90
2023/03/02 01:50:04;;;;;;;11.27;3.77;;;;;;;-3.46;100.00;102277.34;4955579;28;20282;-90
2023/03/02 01:52:33;;;;;;;9.82;4.55;;;;;;;-3.46;100.00;102263.38;4954053;28;20556;-90
2023/03/02 01:55:04;;;;;;;5.35;2.85;;;;;;;-3.40;100.00;102278.59;4954815;28;20062;-90
2023/03/02 01:57:42;;;;;;;11.68;5.07;;;;;;;-3.37;100.00;102276.53;4954920;28;20130;-90
2023/03/02 02:00:14;;;;;;;9.55;4.82;;;;;;;-3.34;100.00;102262.38;4954818;28;20410;-90
2023/03/02 02:02:40;;;;;;;9.23;4.40;;;;;;;-3.33;100.00;102257.94;4971040;28;20035;-90
2023/03/02 02:05:10;;;;;;;10.25;4.85;;;;;;;-3.31;100.00;102256.88;4961812;28;20382;-90
2023/03/02 02:07:36;;;;;;;9.35;4.82;;;;;;;-3.34;100.00;102246.63;4954353;28;20058;-90
2023/03/02 02:10:02;;;;;;;11.93;4.77;;;;;;;-3.36;100.00;102253.78;4966717;28;20036;-90
2023/03/02 02:12:27;;;;;;;8.50;4.97;;;;;;;-3.39;100.00;102254.91;4946618;29;20110;-90
2023/03/02 02:14:54;;;;;;;9.37;4.87;;;;;;;-3.39;100.00;102265.38;4949571;28;20039;-90
2023/03/02 02:17:20;;;;;;;10.82;5.28;;;;;;;-3.40;100.00;102255.00;4952753;28;20082;-90
2023/03/02 02:20:06;;;;;;;12.82;5.50;;;;;;;-3.41;100.00;102256.81;4951808;28;20031;-90
2023/03/02 02:22:50;;;;;;;10.40;5.07;;;;;;;-3.37;100.00;102260.00;4953260;28;20031;-90
2023/03/02 02:25:54;;;;;;;11.73;5.13;;;;;;;-3.33;100.00;102264.03;4954007;28;20130;-90
2023/03/02 02:28:25;;;;;;;11.90;5.65;;;;;;;-3.34;100.00;102254.50;4953916;28;20027;-90
2023/03/02 02:31:02;;;;;;;12.68;6.25;;;;;;;-3.37;100.00;102242.47;4949065;29;20031;-91
2023/03/02 02:33:30;;;;;;;10.80;5.20;;;;;;;-3.33;100.00;102243.06;4951732;28;20031;-90
2023/03/02 02:36:03;;;;;;;13.77;5.93;;;;;;;-3.34;100.00;102257.13;4948092;28;20036;-88
2023/03/02 02:38:30;;;;;;;10.77;5.57;;;;;;;-3.36;100.00;102249.38;4951862;29;20478;-88
2023/03/02 02:40:59;;;;;;;16.03;6.33;;;;;;;-3.50;100.00;102239.22;4953733;28;20058;-88
2023/03/02 02:43:28;;;;;;;15.57;6.23;;;;;;;-3.49;100.00;102248.75;4952536;28;20362;-89
2023/03/02 02:45:57;;;;;;;13.95;6.03;;;;;;;-3.71;100.00;102219.09;4953369;28;20035;-89
2023/03/02 02:48:25;;;;;;;12.50;6.15;;;;;;;-3.51;100.00;102245.44;4952121;28;20027;-88
2023/03/02 02:50:58;;;;;;;14.35;5.95;;;;;;;-3.54;100.00;102243.91;4953276;28;20034;-89
2023/03/02 02:53:32;;;;;;;11.18;5.50;;;;;;;-3.57;100.00;102236.28;4950844;29;20040;-88
2023/03/02 02:55:59;;;;;;;10.90;5.50;;;;;;;-3.63;100.00;102231.56;4952672;28;20035;-89
2023/03/02 02:58:42;;;;;;;14.20;6.85;;;;;;;-3.65;100.00;102218.59;4951599;29;20046;-89
2023/03/02 03:01:11;;;;;;;15.80;7.60;;;;;;;-3.67;100.00;102224.94;4952834;28;20163;-89
2023/03/02 03:03:38;;;;;;;17.10;7.93;;;;;;;-3.77;100.00;102222.25;4952309;28;20047;-88
2023/03/02 03:06:06;;;;;;;15.27;7.83;;;;;;;-3.66;100.00;102240.53;4950565;29;20050;-88
2023/03/02 03:08:47;;;;;;;17.60;8.10;;;;;;;-3.62;100.00;102238.47;4953057;28;20331;-88
2023/03/02 03:11:22;;;;;;;19.98;8.52;;;;;;;-3.70;100.00;102225.19;4953199;28;20472;-88
2023/03/02 03:13:50;;;;;;;17.88;8.45;;;;;;;-3.78;100.00;102209.28;4949051;29;20064;-88
2023/03/02 03:16:17;;;;;;;24.45;9.43;;;;;;;-3.58;100.00;102232.00;4952950;28;20028;-88
2023/03/02 03:18:48;;;;;;;21.30;9.20;;;;;;;-3.67;100.00;102235.44;4952778;28;20490;-87
2023/03/02 03:21:17;;;;;;;20.60;9.27;;;;;;;-3.76;100.00;102223.06;4952358;28;20027;-88
2023/03/02 03:23:43;;;;;;;25.15;10.02;;;;;;;-3.78;100.00;102232.84;4956356;28;20512;-87
2023/03/02 03:26:09;;;;;;;25.55;11.02;;;;;;;-3.73;100.00;102235.94;4960940;28;20498;-88
2023/03/02 03:28:34;;;;;;;27.53;11.77;;;;;;;-3.78;100.00;102228.47;4973642;28;20019;-89
2023/03/02 03:31:00;;;;;;;31.80;11.63;;;;;;;-3.84;100.00;102215.88;4981132;28;20015;-87
2023/03/02 03:33:25;;;;;;;26.77;11.37;;;;;;;-3.76;100.00;102228.31;4978350;28;20031;-87
2023/03/02 03:35:51;;;;;;;27.70;12.13;;;;;;;-3.75;100.00;102222.13;4976941;28;20062;-86
2023/03/02 03:38:17;;;;;;;28.48;12.35;;;;;;;-3.76;100.00;102218.69;4957183;28;20056;-88
2023/03/02 03:40:42;;;;;;;30.90;13.10;;;;;;;-3.72;100.00;102221.88;4960033;28;20053;-88
2023/03/02 03:43:11;;;;;;;29.77;13.18;;;;;;;-3.77;100.00;102213.56;4956747;28;20039;-89
2023/03/02 03:45:36;;;;;;;28.30;12.43;;;;;;;-3.79;100.00;102208.47;4957792;28;20034;-88
2023/03/02 03:48:02;;;;;;;29.03;12.70;;;;;;;-3.72;100.00;102221.88;4957950;28;20023;-89
2023/03/02 03:50:27;;;;;;;30.20;12.87;;;;;;;-3.81;100.00;102207.75;4955792;28;20042;-90
2023/03/02 03:52:52;;;;;;;32.80;13.23;;;;;;;-3.77;100.00;102218.78;4957829;28;20110;-89
2023/03/02 03:55:18;;;;;;;35.63;14.27;;;;;;;-3.81;100.00;102219.03;4956875;28;20039;-89
2023/03/02 03:57:44;;;;;;;32.57;13.47;;;;;;;-3.82;100.00;102221.81;4958180;28;20024;-90
2023/03/02 04:00:13;;;;;;;31.80;11.98;;;;;;;-3.89;100.00;102218.88;4956960;28;20494;-90
2023/03/02 04:02:39;;;;;;;32.77;14.17;;;;;;;-3.86;100.00;102223.00;4957909;28;20023;-89
2023/03/02 04:05:05;;;;;;;38.70;15.15;;;;;;;-3.87;100.00;102226.59;4956858;28;20035;-90
2023/03/02 04:07:32;;;;;;;42.65;14.95;;;;;;;-3.86;100.00;102223.00;4957389;28;20046;-91
2023/03/02 04:10:02;;;;;;;40.28;15.90;;;;;;;-3.86;100.00;102228.25;4955541;28;20043;-89
2023/03/02 04:12:51;;;;;;;37.15;15.25;;;;;;;-4.09;100.00;102199.56;4955245;29;20069;-89
2023/03/02 04:15:16;;;;;;;40.20;14.95;;;;;;;-3.87;100.00;102237.91;4953795;29;20027;-89
2023/03/02 04:17:43;;;;;;;39.27;15.67;;;;;;;-4.02;100.00;102205.16;4956744;28;20090;-91
2023/03/02 04:20:13;;;;;;;38.55;15.20;;;;;;;-3.91;100.00;102228.66;4956989;28;20355;-89
2023/03/02 04:22:38;;;;;;;41.65;16.13;;;;;;;-3.84;100.00;102221.09;4955807;28;20035;-90
2023/03/02 04:25:04;;;;;;;41.23;16.00;;;;;;;-3.78;100.00;102228.47;4957341;28;20035;-90
2023/03/02 04:27:30;;;;;;;38.97;15.52;;;;;;;-3.77;100.00;102218.78;4955589;28;20110;-90
2023/03/02 04:29:55;;;;;;;40.83;15.87;;;;;;;-3.73;100.00;102225.44;4954675;29;20035;-90
2023/03/02 04:32:20;;;;;;;42.80;16.10;;;;;;;-3.73;100.00;102230.69;4956040;28;20027;-90
2023/03/02 04:34:45;;;;;;;42.20;16.10;;;;;;;-3.77;100.00;102230.13;4956773;28;20038;-90
2023/03/02 04:37:12;;;;;;;42.07;15.70;;;;;;;-3.76;100.00;102233.56;4955957;28;20487;-90
2023/03/02 04:39:37;;;;;;;43.83;15.77;;;;;;;-3.82;100.00;102220.00;4956744;28;20051;-90
2023/03/02 04:42:02;;;;;;;42.93;16.00;;;;;;;-3.74;100.00;102223.78;4956911;28;20063;-91
2023/03/02 04:44:28;;;;;;;36.17;14.05;;;;;;;-3.70;100.00;102227.81;4956351;28;20110;-90
2023/03/02 04:46:53;;;;;;;42.43;16.00;;;;;;;-3.75;100.00;102219.50;4956126;28;20448;-90
2023/03/02 04:49:19;;;;;;;42.60;15.70;;;;;;;-3.73;100.00;102230.69;4956570;28;20428;-90
2023/03/02 04:51:47;;;;;;;35.33;14.20;;;;;;;-3.75;100.00;102229.97;4955799;28;20571;-90
2023/03/02 04:54:19;;;;;;;37.83;14.20;;;;;;;-3.80;100.00;102225.94;4956259;28;20620;-90
2023/03/02 04:56:47;;;;;;;37.88;14.15;;;;;;;-3.77;100.00;102229.28;4955839;28;20042;-90
2023/03/02 04:59:15;;;;;;;35.55;14.32;;;;;;;-3.85;100.00;102215.03;4955677;28;20494;-89
2023/03/02 05:01:40;;;;;;;42.40;15.68;;;;;;;-3.82;100.00;102227.06;4967606;28;20087;-90
2023/03/02 05:04:06;;;;;;;38.20;14.80;;;;;;;-3.89;100.00;102218.88;4959353;28;20051;-90
2023/03/02 05:06:32;;;;;;;38.10;15.38;;;;;;;-3.84;100.00;102232.44;4956367;28;20039;-90
2023/03/02 05:16:43;;;;;;;29.63;10.77;;;;;;;-3.90;100.00;102229.47;5979036;23;20043;-90
2023/03/02 05:19:12;;;;;;;36.53;14.80;;;;;;;-3.89;100.00;102237.22;4956719;28;20594;-90
2023/03/02 05:21:38;;;;;;;43.20;15.60;;;;;;;-3.89;100.00;102242.44;4956175;28;20027;-90
2023/03/02 05:24:04;;;;;;;43.57;15.67;;;;;;;-3.95;100.00;102224.59;4956065;28;20055;-90
2023/03/02 05:26:29;;;;;;;42.95;15.27;;;;;;;-3.95;100.00;102224.59;4953620;28;20023;-89
2023/03/02 05:28:55;;;;;;;48.50;18.00;;;;;;;-3.89;100.00;102236.38;4957887;28;20031;-90
2023/03/02 05:31:29;;;;;;;42.38;16.02;;;;;;;-3.92;100.00;102226.97;4951724;28;20051;-89
2023/03/02 05:33:55;;;;;;;39.17;14.87;;;;;;;-3.94;100.00;102233.31;4954544;28;20027;-90
2023/03/02 05:36:20;;;;;;;43.60;15.67;;;;;;;-4.08;100.00;102205.66;4954689;28;20302;-90
2023/03/02 05:38:46;;;;;;;41.60;15.07;;;;;;;-4.05;100.00;102218.50;4937106;29;20098;-90
2023/03/02 05:41:11;;;;;;;43.73;15.83;;;;;;;-4.08;100.00;102210.88;4936409;29;20023;-90
2023/03/02 05:43:38;;;;;;;45.22;16.40;;;;;;;-4.07;100.00;102215.97;4951091;29;20054;-91
2023/03/02 05:46:05;;;;;;;48.30;16.07;;;;;;;-3.94;100.00;102228.88;4960184;28;20023;-91
2023/03/02 05:48:31;;;;;;;43.83;16.67;;;;;;;-3.94;100.00;102230.69;4945787;28;20809;-89
2023/03/02 05:50:56;;;;;;;43.00;15.82;;;;;;;-3.92;100.00;102228.75;4955350;28;20027;-89
2023/03/02 05:53:22;;;;;;;46.75;17.67;;;;;;;-4.00;100.00;102224.16;4954615;28;20043;-89
2023/03/02 05:55:48;;;;;;;49.20;16.53;;;;;;;-4.07;100.00;102223.84;4956814;28;20023;-88
2023/03/02 05:58:16;;;;;;;47.00;18.05;;;;;;;-4.15;100.00;102210.56;4955954;28;20376;-89
2023/03/02 06:00:43;;;;;;;51.33;18.48;;;;;;;-4.15;100.00;102221.84;4954238;28;20058;-87
2023/03/02 06:03:09;;;;;;;47.97;16.20;;;;;;;-4.21;100.00;102216.28;4954455;28;20071;-90
2023/03/02 06:05:34;;;;;;;42.73;16.37;;;;;;;-4.31;100.00;102205.72;4955239;28;20043;-89
2023/03/02 06:08:00;;;;;;;52.88;17.75;;;;;;;-4.24;100.00;102220.00;4954331;28;20518;-88
2023/03/02 06:10:26;;;;;;;52.90;18.83;;;;;;;-4.24;100.00;102220.00;4952310;29;20692;-86
2023/03/02 06:12:51;;;;;;;50.88;18.60;;;;;;;-4.31;100.00;102217.06;4959505;29;20098;-89
2023/03/02 06:15:16;;;;;;;51.67;17.13;;;;;;;-4.33;100.00;102218.97;4960259;28;20063;-90
2023/03/02 06:17:42;;;;;;;51.22;17.15;;;;;;;-4.39;100.00;102210.78;4960091;29;20019;-88
2023/03/02 06:20:09;;;;;;;49.63;17.80;;;;;;;-4.41;100.00;102218.75;4976490;28;20012;-89
2023/03/02 06:22:40;;;;;;;49.33;17.17;;;;;;;-4.36;100.00;102228.81;4971094;28;20042;-86
2023/03/02 06:25:09;;;;;;;44.80;17.23;;;;;;;-4.43;100.00;102212.78;4943324;29;20114;-87
2023/03/02 06:27:35;;;;;;;58.67;18.50;;;;;;;-4.35;100.00;102231.34;4958753;28;20374;-87
2023/03/02 06:30:01;;;;;;;60.95;18.85;;;;;;;-4.33;100.00;102239.06;4957701;28;20054;-87
2023/03/02 06:32:27;;;;;;;51.63;17.60;;;;;;;-4.36;100.00;102232.28;4958532;28;20517;-86
2023/03/02 06:34:53;;;;;;;54.70;18.50;;;;;;;-4.42;100.00;102224.94;4960290;28;20015;-87
2023/03/02 06:37:18;;;;;;;48.83;16.23;;;;;;;-4.39;100.00;102234.34;4971626;28;20254;-87
2023/03/02 06:39:43;;;;;;;54.30;18.13;;;;;;;-4.40;100.00;102236.09;4966232;28;20107;-87
2023/03/02 06:42:09;;;;;;;54.40;19.00;;;;;;;-4.38;100.00;102242.06;4966180;29;20062;-87
2023/03/02 06:44:34;;;;;;;52.90;17.50;;;;;;;-4.30;100.00;102244.03;4976249;28;20086;-87
2023/03/02 06:46:59;;;;;;;60.03;19.50;;;;;;;-4.30;100.00;102234.41;4966009;28;20023;-87
2023/03/02 06:49:24;;;;;;;60.30;19.13;;;;;;;-4.24;100.00;102246.19;4964445;28;20036;-86
2023/03/02 06:51:50;;;;;;;57.63;18.67;;;;;;;-4.18;100.00;102243.03;4961123;28;20031;-86
2023/03/02 06:54:15;;;;;;;57.80;20.07;;;;;;;-4.08;100.00;102237.06;4957096;28;20035;-86
2023/03/02 06:56:40;;;;;;;57.97;18.87;;;;;;;-4.06;100.00;102235.97;4955180;28;20055;-87
2023/03/02 06:59:06;;;;;;;65.53;21.30;;;;;;;-3.95;100.00;102248.19;4956075;28;20137;-86
2023/03/02 07:01:34;;;;;;;64.47;20.27;;;;;;;-3.96;100.00;102243.91;4949710;28;20087;-86
2023/03/02 07:04:00;;;;;;;61.90;20.17;;;;;;;-3.86;100.00;102257.91;4936292;29;20023;-87
2023/03/02 07:06:25;;;;;;;61.40;19.63;;;;;;;-3.78;100.00;102259.06;4949950;29;20098;-87
2023/03/02 07:08:51;;;;;;;62.00;18.70;;;;;;;-3.74;100.00;102252.59;4971200;28;20041;-86
2023/03/02 07:11:16;;;;;;;69.40;21.17;;;;;;;-3.71;100.00;102244.50;4974763;28;20023;-89
2023/03/02 07:13:41;;;;;;;67.93;19.27;;;;;;;-3.60;100.00;102246.22;4976237;28;20027;-87
2023/03/02 07:16:08;;;;;;;65.82;20.63;;;;;;;-3.71;100.00;102234.00;4975586;28;20027;-88
2023/03/02 07:18:34;;;;;;;67.17;20.37;;;;;;;-3.45;100.00;102265.03;4975385;28;20035;-87
2023/03/02 07:21:00;;;;;;;57.50;18.70;;;;;;;-3.37;100.00;102262.63;4976175;28;20287;-87
2023/03/02 07:23:25;;;;;;;65.87;21.13;;;;;;;-3.37;100.00;102252.13;4975835;28;20022;-87
2023/03/02 07:25:50;;;;;;;66.77;22.20;;;;;;;-3.22;100.00;102263.94;4974459;28;20047;-86
2023/03/02 07:28:16;;;;;;;63.53;20.20;;;;;;;-3.13;100.00;102266.75;4975714;28;20358;-87
2023/03/02 07:30:41;;;;;;;65.73;21.30;;;;;;;-3.09;100.00;102262.88;4975196;28;20019;-86
2023/03/02 07:33:10;;;;;;;58.10;20.20;;;;;;;-3.00;100.00;102256.00;4975140;28;20015;-86
2023/03/02 07:35:36;;;;;;;56.97;20.58;;;;;;;-2.86;100.00;102260.91;4974390;28;20051;-85
2023/03/02 07:38:02;;;;;;;54.40;18.35;;;;;;;-2.83;100.00;102257.19;4975123;28;20012;-86
2023/03/02 07:40:27;;;;;;;48.90;18.43;;;;;;;-2.75;100.00;102260.78;4974100;28;20034;-91
2023/03/02 07:42:52;;;;;;;58.90;19.63;;;;;;;-2.72;100.00;102256.25;4969832;28;20082;-88
2023/03/02 07:45:20;;;;;;;50.90;16.67;;;;;;;-2.67;100.00;102265.38;4953844;28;20107;-89
2023/03/02 07:47:45;;;;;;;58.87;18.80;;;;;;;-2.54;100.00;102270.38;4965246;28;20035;-87
2023/03/02 07:50:12;;;;;;;57.20;19.00;;;;;;;-2.52;100.00;102267.59;4973038;28;20302;-87
2023/03/02 07:52:38;;;;;;;57.07;18.80;;;;;;;-2.42;100.00;102276.34;4960920;28;20062;-86
2023/03/02 07:55:05;;;;;;;54.87;18.40;;;;;;;-2.35;100.00;102259.06;4951626;28;20321;-88
2023/03/02 07:57:30;;;;;;;53.28;17.88;;;;;;;-2.28;100.00;102272.47;4956256;28;20054;-87
2023/03/02 07:59:56;;;;;;;53.35;18.10;;;;;;;-2.21;100.00;102270.97;4962506;28;20035;-87
2023/03/02 08:02:24;;;;;;;53.30;17.33;;;;;;;-2.13;100.00;102270.28;4954665;28;20408;-85
2023/03/02 08:04:51;;;;;;;45.63;16.13;;;;;;;-2.04;100.00;102272.09;4952804;28;20038;-87
2023/03/02 08:12:46;;;;;;;53.60;18.02;;;;;;;-2.04;100.00;102234.47;5280333;23;20091;-90
2023/03/02 08:15:15;;;;;;;50.33;16.93;;;;;;;-1.72;100.00;102262.22;4933815;29;20058;-87
2023/03/02 08:17:41;;;;;;;41.58;15.48;;;;;;;-1.65;100.00;102267.78;4932345;29;20031;-88
2023/03/02 08:20:08;;;;;;;41.72;15.77;;;;;;;-1.72;100.00;102255.19;4934779;29;20032;-88
2023/03/02 08:22:34;;;;;;;37.55;12.65;;;;;;;-1.61;100.00;102261.25;4935210;29;20039;-89
2023/03/02 08:25:03;;;;;;;45.97;16.80;;;;;;;-1.58;100.00;102246.03;4937254;29;20483;-89
2023/03/02 08:31:07;;;;;;;43.97;15.20;;;;;;;-1.73;100.00;102205.38;5407655;23;20419;-89
2023/03/02 08:42:04;;;;;;;40.88;14.15;;;;;;;-1.12;100.00;102261.09;6024861;23;20006;-88
2023/03/02 08:44:30;;;;;;;43.23;15.50;;;;;;;-1.04;100.00;102265.66;4934971;29;20036;-89
2023/03/02 08:46:55;;;;;;;39.03;14.93;;;;;;;-1.06;100.00;102250.00;4936447;29;20039;-89
2023/03/02 08:51:56;;;;;;;40.00;14.63;;;;;;;-1.19;100.00;102213.50;5020072;23;20303;-89
2023/03/02 08:54:22;;;;;;;36.03;13.07;;;;;;;-0.92;100.00;102246.91;4937833;29;20027;-89
2023/03/02 08:56:48;;;;;;;43.42;14.70;;;;;;;-1.08;100.00;102205.41;4937251;29;20110;-88
2023/03/02 09:02:18;;;;;;;34.70;12.83;;;;;;;-0.70;100.00;102250.09;4923540;29;20355;-88
2023/03/02 09:04:56;;;;;;;39.03;14.45;;;;;;;-0.77;100.00;102214.81;4927017;28;20055;-88
2023/03/02 09:07:52;;;;;;;33.80;13.27;;;;;;;-0.52;100.00;102247.47;4937659;28;20036;-88
2023/03/02 09:10:23;;;;;;;33.37;13.07;;;;;;;-0.39;100.00;102244.50;4930477;29;20359;-88
2023/03/02 09:12:54;;;;;;;37.83;13.70;;;;;;;-0.44;100.00;102217.75;4932818;29;20027;-88
2023/03/02 09:15:23;;;;;;;34.58;12.85;;;;;;;-0.23;100.00;102241.19;4939934;29;20034;-89
2023/03/02 09:17:58;;;;;;;34.92;12.70;;;;;;;-0.13;100.00;102241.13;4934329;29;20078;-91
2023/03/02 09:20:24;;;;;;;30.40;10.55;;;;;;;-0.07;100.00;102237.03;4935808;29;20405;-89
2023/03/02 09:22:55;;;;;;;32.87;12.67;;;;;;;0.04;100.00;102242.06;4921099;29;20024;-89
2023/03/02 09:25:20;;;;;;;32.03;12.90;;;;;;;0.07;100.00;102236.50;4917251;29;20447;-90
2023/03/02 09:27:46;;;;;;;27.33;11.13;;;;;;;0.25;100.00;102246.16;4919182;29;20118;-89
2023/03/02 09:30:13;;;;;;;36.28;13.07;;;;;;;0.34;100.00;102242.63;4932860;29;20115;-89
2023/03/02 09:32:40;;;;;;;27.70;11.85;;;;;;;0.36;100.00;102227.47;4938522;29;20038;-89
2023/03/02 09:35:06;;;;;;;29.10;11.40;;;;;;;0.54;100.00;102245.06;4945195;29;20042;-89
2023/03/02 09:37:31;;;;;;;31.63;11.90;;;;;;;0.61;100.00;102251.34;4950650;29;20028;-90
2023/03/02 09:39:56;;;;;;;26.73;11.17;;;;;;;0.68;100.00;102252.38;4937904;29;20157;-90
2023/03/02 09:42:46;;;;;;;28.67;10.30;;;;;;;0.81;100.00;102253.75;4937437;29;20286;-89
2023/03/02 09:45:20;;;;;;;24.17;9.35;;;;;;;0.99;99.00;102246.59;4934167;29;20043;-89
2023/03/02 09:47:54;;;;;;;29.40;11.03;;;;;;;1.11;97.43;102249.78;4934519;29;20103;-91
2023/03/02 09:50:26;;;;;;;25.57;10.17;;;;;;;1.13;97.05;102244.31;4933637;29;20299;-91
2023/03/02 09:53:20;;;;;;;19.98;8.73;;;;;;;1.31;93.04;102250.31;4937807;29;20036;-91
2023/03/02 09:55:52;;;;;;;24.17;10.00;;;;;;;1.40;93.22;102247.72;4936381;29;20054;-89
2023/03/02 09:58:21;;;;;;;17.55;8.57;;;;;;;1.49;92.47;102249.38;4932424;29;20031;-88
2023/03/02 10:11:17;;;;;;;22.73;9.10;;;;;;;1.91;87.56;102242.34;5226312;23;20047;-86
2023/03/02 10:14:23;;;;;;;19.20;9.30;;;;;;;2.02;84.89;102236.72;4953704;28;20286;-88
2023/03/02 10:17:34;;;;;;;14.43;7.47;;;;;;;1.87;85.03;102204.81;4932311;29;20057;-87
2023/03/02 10:20:43;;;;;;;;;;;;;;;;;;;;;
2023/03/02 10:23:12;;;;;;;16.60;7.72;;;;;;;2.35;78.73;102247.25;4945195;29;20055;-88
2023/03/02 10:25:59;;;;;;;14.57;6.93;;;;;;;2.38;79.66;102231.03;4949769;29;20046;-88
2023/03/02 10:28:57;;;;;;;21.20;7.80;;;;;;;2.42;79.80;102232.38;4941815;29;20412;-88
2023/03/02 10:31:28;;;;;;;14.93;7.65;;;;;;;2.45;79.73;102225.09;4950725;29;20075;-88
2023/03/02 10:33:56;;;;;;;15.23;7.13;;;;;;;2.53;79.48;102233.00;4934078;29;20081;-88
2023/03/02 10:36:25;;;;;;;16.13;7.53;;;;;;;2.61;77.75;102240.06;4947567;28;20027;-89
2023/03/02 10:38:53;;;;;;;19.33;7.40;;;;;;;2.66;76.40;102233.28;4938870;28;20267;-86
2023/03/02 10:42:05;;;;;;;16.45;7.38;;;;;;;2.66;76.06;102232.47;4953760;28;20028;-88
2023/03/02 10:44:52;;;;;;;12.63;6.32;;;;;;;2.73;77.03;102231.63;4948034;29;20082;-89
2023/03/02 10:47:28;;;;;;;18.95;8.07;;;;;;;2.86;77.17;102225.78;4955147;29;20507;-86
2023/03/02 10:49:55;;;;;;;18.15;8.60;;;;;;;2.98;77.30;102226.22;4951516;28;20130;-86
2023/03/02 10:52:27;;;;;;;16.30;6.78;;;;;;;3.07;77.57;102228.81;4952417;28;20039;-85
2023/03/02 10:55:13;;;;;;;20.05;8.50;;;;;;;3.15;76.74;102229.59;4953512;28;20502;-86
2023/03/02 10:57:40;;;;;;;17.98;8.15;;;;;;;3.23;76.64;102227.94;4955078;28;20036;-85
2023/03/02 11:00:25;;;;;;;18.23;8.73;;;;;;;3.34;74.06;102232.81;4951640;29;20035;-85
2023/03/02 11:02:53;;;;;;;17.80;7.83;;;;;;;3.44;74.35;102229.94;4955517;28;20294;-84
2023/03/02 11:05:25;;;;;;;18.05;8.60;;;;;;;3.55;72.86;102226.91;4950533;28;20046;-84
2023/03/02 11:07:52;;;;;;;16.50;8.13;;;;;;;3.66;71.28;102211.59;4952711;28;20031;-84
2023/03/02 11:10:20;;;;;;;14.38;7.70;;;;;;;3.67;71.58;102208.75;4952505;28;20043;-84
2023/03/02 11:12:48;;;;;;;19.80;8.32;;;;;;;3.79;71.92;102212.63;4952007;28;20166;-83
2023/03/02 11:15:42;;;;;;;16.67;7.75;;;;;;;3.93;73.27;102216.31;4951127;28;20065;-87
2023/03/02 11:18:31;;;;;;;19.65;7.93;;;;;;;4.05;69.94;102224.66;4953237;28;20039;-84
2023/03/02 11:21:16;;;;;;;20.40;8.75;;;;;;;4.17;71.46;102211.81;4952349;28;20534;-84
2023/03/02 11:23:58;;;;;;;22.47;9.47;;;;;;;4.32;71.21;102214.47;4933449;29;20040;-85
2023/03/02 11:26:33;;;;;;;18.73;8.70;;;;;;;4.38;70.28;102211.06;4943574;29;20313;-85
2023/03/02 11:29:29;;;;;;;16.63;7.57;;;;;;;4.47;69.37;102214.50;4952102;29;20027;-85
2023/03/02 11:32:11;;;;;;;18.25;9.00;;;;;;;4.55;69.32;102211.75;4952492;28;20069;-85
2023/03/02 11:40:48;;;;;;;18.38;8.57;;;;;;;4.96;70.40;102205.09;4929357;29;20036;-84
2023/03/02 11:43:22;;;;;;;19.65;8.27;;;;;;;4.85;69.76;102187.00;4930279;29;20028;-85
2023/03/02 11:46:37;;;;;;;19.50;9.02;;;;;;;5.06;67.29;102207.47;4916349;29;20040;-85
2023/03/02 11:52:40;;;;;;;20.93;9.43;;;;;;;5.19;67.43;102180.22;4913230;29;20076;-86
2023/03/02 12:01:55;;;;;;;19.02;9.40;;;;;;;5.48;67.37;102178.44;4930428;29;20131;-85
2023/03/02 12:04:37;;;;;;;22.38;10.32;;;;;;;5.68;67.89;102189.28;4957658;29;20031;-83
2023/03/02 12:07:17;;;;;;;20.85;10.15;;;;;;;5.61;67.98;102159.13;4953138;29;20028;-83
2023/03/02 12:09:43;;;;;;;20.77;9.45;;;;;;;5.82;66.77;102176.91;4954341;28;20031;-84
2023/03/02 12:12:31;;;;;;;20.23;9.73;;;;;;;5.81;67.94;102180.59;4954183;29;20020;-83
2023/03/02 12:15:00;;;;;;;17.10;8.95;;;;;;;5.87;67.13;102193.09;4955049;29;20063;-84
2023/03/02 12:17:25;;;;;;;20.85;10.50;;;;;;;5.98;65.75;102177.66;4940453;29;20032;-84
2023/03/02 12:19:54;;;;;;;17.13;9.27;;;;;;;6.01;65.57;102171.97;4939757;29;20538;-83
2023/03/02 12:22:28;;;;;;;16.13;8.98;;;;;;;5.98;66.34;102159.81;4938779;29;20032;-83